sensor_id;sensor_type;location;lat;lon;timestamp;pressure;altitude;pressure_sealevel;temperature;humidity
53689;BME280;39583;54.682;30.662;2023-05-07T15:04:43;100768.84;;;11.67;28.65
53689;BME280;39583;54.682;30.662;2023-05-07T15:07:13;100787.97;;;11.94;28.66
53689;BME280;39583;54.682;30.662;2023-05-07T15:09:42;100791.78;;;12.06;28.84
53689;BME280;39583;54.682;30.662;2023-05-07T15:12:08;100778.56;;;12.11;28.72
53689;BME280;39583;54.682;30.662;2023-05-07T15:14:34;100788.25;;;12.05;28.71
53689;BME280;39583;54.682;30.662;2023-05-07T15:17:00;100787.81;;;12.02;28.88
53689;BME280;39583;54.682;30.662;2023-05-07T15:19:26;100789.09;;;12.06;28.70
53689;BME280;39583;54.682;30.662;2023-05-07T15:21:56;100784.50;;;12.00;28.77
53689;BME280;39583;54.682;30.662;2023-05-07T15:24:23;100787.94;;;11.87;28.84
53689;BME280;39583;54.682;30.662;2023-05-07T15:26:51;100798.13;;;11.92;28.97
53689;BME280;39583;54.682;30.662;2023-05-07T15:29:17;100781.59;;;12.01;29.12
53689;BME280;39583;54.682;30.662;2023-05-07T15:31:43;100787.81;;;12.02;28.41
53689;BME280;39583;54.682;30.662;2023-05-07T15:34:09;100787.63;;;12.03;28.51
53689;BME280;39583;54.682;30.662;2023-05-07T15:36:35;100795.81;;;12.17;28.82
53689;BME280;39583;54.682;30.662;2023-05-07T15:39:01;100797.66;;;12.44;28.28
53689;BME280;39583;54.682;30.662;2023-05-07T15:41:28;100793.47;;;12.83;27.60
53689;BME280;39583;54.682;30.662;2023-05-07T15:43:54;100785.97;;;13.59;26.62
53689;BME280;39583;54.682;30.662;2023-05-07T15:46:21;100795.69;;;14.53;25.20
53689;BME280;39583;54.682;30.662;2023-05-07T15:48:50;100789.75;;;15.20;24.19
53689;BME280;39583;54.682;30.662;2023-05-07T15:51:17;100791.59;;;15.89;23.47
53689;BME280;39583;54.682;30.662;2023-05-07T15:53:43;100783.34;;;16.39;22.91
53689;BME280;39583;54.682;30.662;2023-05-07T15:56:10;100791.88;;;16.79;22.47
53689;BME280;39583;54.682;30.662;2023-05-07T15:58:36;100789.13;;;17.16;22.23
53689;BME280;39583;54.682;30.662;2023-05-07T16:01:02;100795.63;;;17.57;22.16
53689;BME280;39583;54.682;30.662;2023-05-07T16:03:28;100787.28;;;17.82;22.04
53689;BME280;39583;54.682;30.662;2023-05-07T16:05:55;100789.69;;;18.02;21.74
53689;BME280;39583;54.682;30.662;2023-05-07T16:08:26;100792.88;;;18.34;21.89
53689;BME280;39583;54.682;30.662;2023-05-07T16:10:52;100794.06;;;18.49;21.75
53689;BME280;39583;54.682;30.662;2023-05-07T16:13:18;100796.31;;;18.64;21.55
53689;BME280;39583;54.682;30.662;2023-05-07T16:15:45;100797.16;;;18.65;21.42
53689;BME280;39583;54.682;30.662;2023-05-07T16:18:11;100798.88;;;18.59;21.00
53689;BME280;39583;54.682;30.662;2023-05-07T16:20:41;100798.47;;;18.39;20.86
53689;BME280;39583;54.682;30.662;2023-05-07T16:23:11;100805.91;;;18.20;20.92
53689;BME280;39583;54.682;30.662;2023-05-07T16:25:37;100799.03;;;17.94;20.67
53689;BME280;39583;54.682;30.662;2023-05-07T16:28:03;100805.69;;;17.86;21.08
53689;BME280;39583;54.682;30.662;2023-05-07T16:30:29;100806.63;;;18.04;21.25
53689;BME280;39583;54.682;30.662;2023-05-07T16:32:55;100805.81;;;18.26;21.13
53689;BME280;39583;54.682;30.662;2023-05-07T16:35:21;100805.66;;;18.45;21.32
53689;BME280;39583;54.682;30.662;2023-05-07T16:37:47;100809.25;;;17.57;21.69
53689;BME280;39583;54.682;30.662;2023-05-07T16:40:13;100816.19;;;15.95;22.54
53689;BME280;39583;54.682;30.662;2023-05-07T16:42:39;100821.31;;;14.63;23.68
53689;BME280;39583;54.682;30.662;2023-05-07T16:45:05;100817.00;;;13.63;24.66
53689;BME280;39583;54.682;30.662;2023-05-07T16:47:32;100824.25;;;12.88;25.52
53689;BME280;39583;54.682;30.662;2023-05-07T16:49:58;100818.13;;;12.32;26.01
53689;BME280;39583;54.682;30.662;2023-05-07T16:52:26;100817.41;;;11.89;26.24
53689;BME280;39583;54.682;30.662;2023-05-07T16:54:52;100817.28;;;11.54;26.73
53689;BME280;39583;54.682;30.662;2023-05-07T16:57:23;100829.59;;;11.20;26.94
53689;BME280;39583;54.682;30.662;2023-05-07T16:59:50;100832.34;;;10.91;27.19
53689;BME280;39583;54.682;30.662;2023-05-07T17:02:17;100829.41;;;10.71;27.36
53689;BME280;39583;54.682;30.662;2023-05-07T17:04:43;100833.69;;;10.51;27.45
53689;BME280;39583;54.682;30.662;2023-05-07T17:07:09;100832.47;;;10.39;27.87
53689;BME280;39583;54.682;30.662;2023-05-07T17:09:35;100838.78;;;10.60;27.88
53689;BME280;39583;54.682;30.662;2023-05-07T17:12:01;100833.41;;;10.75;27.66
53689;BME280;39583;54.682;30.662;2023-05-07T17:14:27;100844.66;;;10.49;28.28
53689;BME280;39583;54.682;30.662;2023-05-07T17:16:53;100821.53;;;10.02;28.79
53689;BME280;39583;54.682;30.662;2023-05-07T17:19:19;100841.03;;;9.67;29.72
53689;BME280;39583;54.682;30.662;2023-05-07T17:21:45;100846.72;;;9.26;30.46
53689;BME280;39583;54.682;30.662;2023-05-07T17:24:10;100840.38;;;8.80;31.07
53689;BME280;39583;54.682;30.662;2023-05-07T17:26:37;100826.94;;;8.33;31.65
53689;BME280;39583;54.682;30.662;2023-05-07T17:29:03;100848.91;;;8.20;32.28
53689;BME280;39583;54.682;30.662;2023-05-07T17:31:29;100847.78;;;7.90;33.17
53689;BME280;39583;54.682;30.662;2023-05-07T17:33:56;100861.03;;;7.59;33.69
53689;BME280;39583;54.682;30.662;2023-05-07T17:36:22;100859.81;;;7.29;34.14
53689;BME280;39583;54.682;30.662;2023-05-07T17:38:48;100865.25;;;7.03;35.11
53689;BME280;39583;54.682;30.662;2023-05-07T17:41:14;100860.84;;;6.77;35.51
53689;BME280;39583;54.682;30.662;2023-05-07T17:43:40;100853.00;;;6.50;35.77
53689;BME280;39583;54.682;30.662;2023-05-07T17:46:07;100863.78;;;6.32;36.93
53689;BME280;39583;54.682;30.662;2023-05-07T17:48:33;100859.63;;;6.12;36.99
53689;BME280;39583;54.682;30.662;2023-05-07T17:51:00;100868.00;;;5.91;37.92
53689;BME280;39583;54.682;30.662;2023-05-07T17:53:26;100861.78;;;5.73;38.33
53689;BME280;39583;54.682;30.662;2023-05-07T17:55:53;100869.69;;;5.56;38.69
53689;BME280;39583;54.682;30.662;2023-05-07T17:58:19;100873.19;;;5.39;39.30
53689;BME280;39583;54.682;30.662;2023-05-07T18:00:47;100875.41;;;5.26;39.09
53689;BME280;39583;54.682;30.662;2023-05-07T18:03:13;100865.06;;;5.13;39.62
53689;BME280;39583;54.682;30.662;2023-05-07T18:05:39;100878.75;;;5.10;39.69
53689;BME280;39583;54.682;30.662;2023-05-07T18:08:06;100861.81;;;4.92;40.09
53689;BME280;39583;54.682;30.662;2023-05-07T18:10:32;100860.44;;;4.88;40.56
53689;BME280;39583;54.682;30.662;2023-05-07T18:12:58;100878.75;;;4.83;41.03
53689;BME280;39583;54.682;30.662;2023-05-07T18:15:24;100880.50;;;4.64;41.25
53689;BME280;39583;54.682;30.662;2023-05-07T18:17:50;100877.22;;;4.43;41.86
53689;BME280;39583;54.682;30.662;2023-05-07T18:20:17;100884.97;;;4.27;42.51
53689;BME280;39583;54.682;30.662;2023-05-07T18:22:43;100867.63;;;4.03;42.88
53689;BME280;39583;54.682;30.662;2023-05-07T18:25:09;100893.72;;;4.00;43.22
53689;BME280;39583;54.682;30.662;2023-05-07T18:27:35;100877.19;;;3.77;43.43
53689;BME280;39583;54.682;30.662;2023-05-07T18:30:01;100896.00;;;3.75;43.28
53689;BME280;39583;54.682;30.662;2023-05-07T18:32:28;100896.41;;;3.61;43.74
53689;BME280;39583;54.682;30.662;2023-05-07T18:34:55;100898.78;;;3.45;44.19
53689;BME280;39583;54.682;30.662;2023-05-07T18:37:21;100902.00;;;3.29;44.50
53689;BME280;39583;54.682;30.662;2023-05-07T18:39:47;100902.41;;;3.15;44.66
53689;BME280;39583;54.682;30.662;2023-05-07T18:42:13;100904.72;;;2.99;45.08
53689;BME280;39583;54.682;30.662;2023-05-07T18:44:39;100875.94;;;2.73;45.47
53689;BME280;39583;54.682;30.662;2023-05-07T18:47:05;100911.56;;;2.91;45.11
53689;BME280;39583;54.682;30.662;2023-05-07T18:49:32;100874.53;;;2.69;45.31
53689;BME280;39583;54.682;30.662;2023-05-07T18:51:58;100900.47;;;2.86;45.29
53689;BME280;39583;54.682;30.662;2023-05-07T18:54:25;100917.19;;;2.88;45.07
53689;BME280;39583;54.682;30.662;2023-05-07T18:56:51;100902.94;;;2.69;45.61
53689;BME280;39583;54.682;30.662;2023-05-07T18:59:16;100906.53;;;2.58;45.79
53689;BME280;39583;54.682;30.662;2023-05-07T19:01:43;100907.44;;;2.47;46.38
53689;BME280;39583;54.682;30.662;2023-05-07T19:04:10;100906.72;;;2.35;46.66
53689;BME280;39583;54.682;30.662;2023-05-07T19:06:36;100912.53;;;2.29;46.70
53689;BME280;39583;54.682;30.662;2023-05-07T19:09:03;100896.81;;;2.17;46.80
53689;BME280;39583;54.682;30.662;2023-05-07T19:11:34;100916.94;;;2.19;47.30
53689;BME280;39583;54.682;30.662;2023-05-07T19:14:00;100907.69;;;2.14;47.42
53689;BME280;39583;54.682;30.662;2023-05-07T19:16:26;100914.63;;;2.05;47.52
53689;BME280;39583;54.682;30.662;2023-05-07T19:18:52;100914.31;;;1.98;47.61
53689;BME280;39583;54.682;30.662;2023-05-07T19:21:18;100915.66;;;1.93;47.98
53689;BME280;39583;54.682;30.662;2023-05-07T19:23:44;100917.53;;;1.81;48.08
53689;BME280;39583;54.682;30.662;2023-05-07T19:26:11;100920.97;;;1.72;48.35
53689;BME280;39583;54.682;30.662;2023-05-07T19:28:37;100908.88;;;1.68;48.60
53689;BME280;39583;54.682;30.662;2023-05-07T19:31:03;100899.25;;;1.67;48.48
53689;BME280;39583;54.682;30.662;2023-05-07T19:33:29;100917.41;;;1.83;48.69
53689;BME280;39583;54.682;30.662;2023-05-07T19:35:56;100916.88;;;1.89;48.51
53689;BME280;39583;54.682;30.662;2023-05-07T19:38:26;100926.69;;;1.88;48.83
53689;BME280;39583;54.682;30.662;2023-05-07T19:40:53;100921.75;;;1.84;49.10
53689;BME280;39583;54.682;30.662;2023-05-07T19:43:20;100930.34;;;1.76;49.27
53689;BME280;39583;54.682;30.662;2023-05-07T19:45:46;100930.88;;;1.70;49.44
